sensor_id;sensor_type;location;lat;lon;timestamp;P1;durP1;ratioP1;P2;durP2;ratioP2
32760;SDS011;19126;47.472;7.850;2022-07-05T00:01:45;14.60;;;5.47;;
32760;SDS011;19126;47.472;7.850;2022-07-05T00:04:12;14.02;;;5.70;;
32760;SDS011;19126;47.472;7.850;2022-07-05T00:06:40;15.93;;;5.63;;
32760;SDS011;19126;47.472;7.850;2022-07-05T00:09:27;17.35;;;5.88;;
32760;SDS011;19126;47.472;7.850;2022-07-05T00:11:54;12.45;;;5.63;;
32760;SDS011;19126;47.472;7.850;2022-07-05T00:14:22;9.07;;;5.25;;
32760;SDS011;19126;47.472;7.850;2022-07-05T00:16:50;10.43;;;5.47;;
32760;SDS011;19126;47.472;7.850;2022-07-05T00:19:18;12.93;;;5.38;;
32760;SDS011;19126;47.472;7.850;2022-07-05T00:21:45;17.08;;;6.15;;
32760;SDS011;19126;47.472;7.850;2022-07-05T00:24:12;13.40;;;6.05;;
32760;SDS011;19126;47.472;7.850;2022-07-05T00:26:39;13.65;;;5.47;;
32760;SDS011;19126;47.472;7.850;2022-07-05T00:29:06;11.35;;;5.97;;
32760;SDS011;19126;47.472;7.850;2022-07-05T00:31:34;9.32;;;5.47;;
32760;SDS011;19126;47.472;7.850;2022-07-05T00:34:02;10.23;;;5.60;;
32760;SDS011;19126;47.472;7.850;2022-07-05T00:36:29;12.40;;;6.20;;
32760;SDS011;19126;47.472;7.850;2022-07-05T00:38:57;14.43;;;6.05;;
32760;SDS011;19126;47.472;7.850;2022-07-05T00:41:24;7.53;;;5.53;;
32760;SDS011;19126;47.472;7.850;2022-07-05T00:43:52;12.55;;;5.55;;
32760;SDS011;19126;47.472;7.850;2022-07-05T00:46:20;9.80;;;5.03;;
32760;SDS011;19126;47.472;7.850;2022-07-05T00:48:47;14.30;;;5.00;;
32760;SDS011;19126;47.472;7.850;2022-07-05T00:51:16;8.27;;;4.68;;
32760;SDS011;19126;47.472;7.850;2022-07-05T00:53:44;8.10;;;4.35;;
32760;SDS011;19126;47.472;7.850;2022-07-05T00:56:11;10.98;;;5.35;;
32760;SDS011;19126;47.472;7.850;2022-07-05T00:58:39;13.25;;;5.25;;
32760;SDS011;19126;47.472;7.850;2022-07-05T01:01:08;14.85;;;5.00;;
32760;SDS011;19126;47.472;7.850;2022-07-05T01:03:36;13.60;;;5.65;;
32760;SDS011;19126;47.472;7.850;2022-07-05T01:06:05;13.85;;;5.50;;
32760;SDS011;19126;47.472;7.850;2022-07-05T01:08:37;6.82;;;4.65;;
32760;SDS011;19126;47.472;7.850;2022-07-05T01:13:33;12.15;;;4.47;;
32760;SDS011;19126;47.472;7.850;2022-07-05T01:16:02;10.52;;;3.50;;
32760;SDS011;19126;47.472;7.850;2022-07-05T01:18:31;11.70;;;4.30;;
32760;SDS011;19126;47.472;7.850;2022-07-05T01:20:59;6.03;;;4.18;;
32760;SDS011;19126;47.472;7.850;2022-07-05T01:23:29;10.35;;;4.32;;
32760;SDS011;19126;47.472;7.850;2022-07-05T01:25:58;8.77;;;4.75;;
32760;SDS011;19126;47.472;7.850;2022-07-05T01:28:28;9.65;;;4.60;;
32760;SDS011;19126;47.472;7.850;2022-07-05T01:30:55;8.75;;;4.13;;
32760;SDS011;19126;47.472;7.850;2022-07-05T01:33:26;22.98;;;6.07;;
32760;SDS011;19126;47.472;7.850;2022-07-05T01:35:55;12.65;;;4.10;;
32760;SDS011;19126;47.472;7.850;2022-07-05T01:38:22;9.30;;;4.40;;
32760;SDS011;19126;47.472;7.850;2022-07-05T01:40:51;10.93;;;4.32;;
32760;SDS011;19126;47.472;7.850;2022-07-05T01:43:19;11.90;;;3.95;;
32760;SDS011;19126;47.472;7.850;2022-07-05T01:45:46;12.98;;;3.42;;
32760;SDS011;19126;47.472;7.850;2022-07-05T01:48:16;11.38;;;3.55;;
32760;SDS011;19126;47.472;7.850;2022-07-05T01:50:46;9.07;;;3.67;;
32760;SDS011;19126;47.472;7.850;2022-07-05T01:53:17;9.65;;;3.50;;
32760;SDS011;19126;47.472;7.850;2022-07-05T01:55:46;7.03;;;3.63;;
32760;SDS011;19126;47.472;7.850;2022-07-05T01:58:15;10.82;;;3.67;;
32760;SDS011;19126;47.472;7.850;2022-07-05T02:00:43;6.00;;;3.92;;
32760;SDS011;19126;47.472;7.850;2022-07-05T02:03:12;11.05;;;4.10;;
32760;SDS011;19126;47.472;7.850;2022-07-05T02:05:41;9.02;;;3.42;;
32760;SDS011;19126;47.472;7.850;2022-07-05T02:08:11;7.95;;;3.78;;
32760;SDS011;19126;47.472;7.850;2022-07-05T02:10:41;16.55;;;4.65;;
32760;SDS011;19126;47.472;7.850;2022-07-05T02:13:10;10.45;;;4.25;;
32760;SDS011;19126;47.472;7.850;2022-07-05T02:15:40;6.57;;;3.53;;
32760;SDS011;19126;47.472;7.850;2022-07-05T02:18:08;5.97;;;3.45;;
32760;SDS011;19126;47.472;7.850;2022-07-05T02:20:37;11.82;;;3.85;;
32760;SDS011;19126;47.472;7.850;2022-07-05T02:23:05;7.93;;;3.92;;
32760;SDS011;19126;47.472;7.850;2022-07-05T02:25:33;24.63;;;4.35;;
32760;SDS011;19126;47.472;7.850;2022-07-05T02:28:01;12.40;;;4.07;;
32760;SDS011;19126;47.472;7.850;2022-07-05T02:30:29;15.52;;;4.63;;
32760;SDS011;19126;47.472;7.850;2022-07-05T02:32:57;9.23;;;4.07;;
32760;SDS011;19126;47.472;7.850;2022-07-05T02:35:24;12.00;;;4.45;;
32760;SDS011;19126;47.472;7.850;2022-07-05T02:37:52;12.50;;;4.25;;
32760;SDS011;19126;47.472;7.850;2022-07-05T02:40:19;8.05;;;4.00;;
32760;SDS011;19126;47.472;7.850;2022-07-05T02:42:46;14.25;;;4.40;;
32760;SDS011;19126;47.472;7.850;2022-07-05T02:45:13;9.90;;;4.35;;
32760;SDS011;19126;47.472;7.850;2022-07-05T02:47:40;19.58;;;4.10;;
32760;SDS011;19126;47.472;7.850;2022-07-05T02:50:09;12.18;;;3.75;;
32760;SDS011;19126;47.472;7.850;2022-07-05T02:52:37;11.40;;;3.83;;
32760;SDS011;19126;47.472;7.850;2022-07-05T02:55:04;18.00;;;4.00;;
32760;SDS011;19126;47.472;7.850;2022-07-05T02:57:32;6.10;;;3.15;;
32760;SDS011;19126;47.472;7.850;2022-07-05T03:00:03;12.10;;;4.28;;
32760;SDS011;19126;47.472;7.850;2022-07-05T03:02:32;11.55;;;3.53;;
32760;SDS011;19126;47.472;7.850;2022-07-05T03:04:59;13.60;;;3.60;;
32760;SDS011;19126;47.472;7.850;2022-07-05T03:07:28;14.23;;;3.88;;
32760;SDS011;19126;47.472;7.850;2022-07-05T03:09:55;14.88;;;3.70;;
32760;SDS011;19126;47.472;7.850;2022-07-05T03:12:22;9.43;;;3.72;;
32760;SDS011;19126;47.472;7.850;2022-07-05T03:14:49;7.78;;;3.65;;
32760;SDS011;19126;47.472;7.850;2022-07-05T03:17:16;28.63;;;4.38;;
32760;SDS011;19126;47.472;7.850;2022-07-05T03:19:43;15.77;;;4.35;;
32760;SDS011;19126;47.472;7.850;2022-07-05T03:22:11;12.73;;;4.53;;
32760;SDS011;19126;47.472;7.850;2022-07-05T03:24:39;17.50;;;4.88;;
32760;SDS011;19126;47.472;7.850;2022-07-05T03:27:06;12.10;;;3.95;;
32760;SDS011;19126;47.472;7.850;2022-07-05T03:29:33;9.10;;;4.30;;
32760;SDS011;19126;47.472;7.850;2022-07-05T03:32:01;8.05;;;3.55;;
32760;SDS011;19126;47.472;7.850;2022-07-05T03:34:28;9.93;;;4.13;;
32760;SDS011;19126;47.472;7.850;2022-07-05T03:36:55;17.70;;;4.97;;
32760;SDS011;19126;47.472;7.850;2022-07-05T03:39:22;20.67;;;4.10;;
32760;SDS011;19126;47.472;7.850;2022-07-05T03:41:51;7.35;;;3.70;;
32760;SDS011;19126;47.472;7.850;2022-07-05T03:44:18;9.23;;;3.22;;
32760;SDS011;19126;47.472;7.850;2022-07-05T03:46:45;8.07;;;3.85;;
32760;SDS011;19126;47.472;7.850;2022-07-05T03:49:12;6.57;;;3.15;;
32760;SDS011;19126;47.472;7.850;2022-07-05T03:51:40;11.85;;;3.50;;
32760;SDS011;19126;47.472;7.850;2022-07-05T03:54:07;10.95;;;3.55;;
32760;SDS011;19126;47.472;7.850;2022-07-05T03:56:34;13.32;;;3.25;;
32760;SDS011;19126;47.472;7.850;2022-07-05T03:59:02;9.57;;;3.50;;
32760;SDS011;19126;47.472;7.850;2022-07-05T04:01:30;6.97;;;3.95;;
32760;SDS011;19126;47.472;7.850;2022-07-05T04:03:57;15.13;;;4.00;;
32760;SDS011;19126;47.472;7.850;2022-07-05T04:06:24;9.32;;;3.20;;
32760;SDS011;19126;47.472;7.850;2022-07-05T04:08:51;7.68;;;3.25;;
32760;SDS011;19126;47.472;7.850;2022-07-05T04:11:19;12.90;;;3.70;;
32760;SDS011;19126;47.472;7.850;2022-07-05T04:13:47;14.90;;;3.83;;
32760;SDS011;19126;47.472;7.850;2022-07-05T04:16:15;6.93;;;3.70;;
32760;SDS011;19126;47.472;7.850;2022-07-05T04:18:42;15.20;;;4.32;;
32760;SDS011;19126;47.472;7.850;2022-07-05T04:21:09;13.68;;;3.22;;
32760;SDS011;19126;47.472;7.850;2022-07-05T04:23:37;10.70;;;3.50;;
32760;SDS011;19126;47.472;7.850;2022-07-05T04:26:04;7.70;;;2.83;;
32760;SDS011;19126;47.472;7.850;2022-07-05T04:28:31;11.93;;;2.55;;
32760;SDS011;19126;47.472;7.850;2022-07-05T04:30:58;8.43;;;3.20;;
32760;SDS011;19126;47.472;7.850;2022-07-05T04:33:27;9.48;;;2.80;;
32760;SDS011;19126;47.472;7.850;2022-07-05T04:35:54;11.23;;;3.38;;
32760;SDS011;19126;47.472;7.850;2022-07-05T04:38:21;6.22;;;2.90;;
32760;SDS011;19126;47.472;7.850;2022-07-05T04:40:48;7.70;;;3.03;;
32760;SDS011;19126;47.472;7.850;2022-07-05T04:43:16;13.27;;;2.95;;
32760;SDS011;19126;47.472;7.850;2022-07-05T04:45:43;7.85;;;2.88;;
32760;SDS011;19126;47.472;7.850;2022-07-05T04:48:10;5.80;;;2.60;;
32760;SDS011;19126;47.472;7.850;2022-07-05T04:50:40;14.80;;;3.08;;
32760;SDS011;19126;47.472;7.850;2022-07-05T04:53:07;12.15;;;2.97;;
32760;SDS011;19126;47.472;7.850;2022-07-05T04:55:35;6.50;;;3.13;;
32760;SDS011;19126;47.472;7.850;2022-07-05T04:58:02;8.70;;;3.10;;
32760;SDS011;19126;47.472;7.850;2022-07-05T05:00:29;13.27;;;3.08;;
32760;SDS011;19126;47.472;7.850;2022-07-05T05:02:56;15.63;;;3.45;;
32760;SDS011;19126;47.472;7.850;2022-07-05T05:05:24;12.00;;;3.33;;
32760;SDS011;19126;47.472;7.850;2022-07-05T05:07:52;8.07;;;3.20;;
32760;SDS011;19126;47.472;7.850;2022-07-05T05:10:19;15.02;;;2.75;;
32760;SDS011;19126;47.472;7.850;2022-07-05T05:12:46;9.77;;;3.25;;
32760;SDS011;19126;47.472;7.850;2022-07-05T05:15:14;7.78;;;3.08;;
32760;SDS011;19126;47.472;7.850;2022-07-05T05:17:42;3.72;;;2.45;;
32760;SDS011;19126;47.472;7.850;2022-07-05T05:20:11;8.98;;;3.85;;
32760;SDS011;19126;47.472;7.850;2022-07-05T05:22:40;15.65;;;3.10;;
32760;SDS011;19126;47.472;7.850;2022-07-05T05:25:09;7.63;;;2.78;;
32760;SDS011;19126;47.472;7.850;2022-07-05T05:27:40;11.60;;;2.88;;
32760;SDS011;19126;47.472;7.850;2022-07-05T05:30:09;20.02;;;3.20;;
32760;SDS011;19126;47.472;7.850;2022-07-05T05:32:38;21.20;;;3.80;;
32760;SDS011;19126;47.472;7.850;2022-07-05T05:35:06;7.20;;;3.00;;
32760;SDS011;19126;47.472;7.850;2022-07-05T05:37:44;14.40;;;3.40;;
32760;SDS011;19126;47.472;7.850;2022-07-05T05:40:17;16.73;;;3.53;;
32760;SDS011;19126;47.472;7.850;2022-07-05T05:42:44;5.50;;;2.88;;
32760;SDS011;19126;47.472;7.850;2022-07-05T05:45:14;17.92;;;3.25;;
32760;SDS011;19126;47.472;7.850;2022-07-05T05:47:43;8.13;;;3.15;;
32760;SDS011;19126;47.472;7.850;2022-07-05T05:50:11;10.48;;;2.65;;
32760;SDS011;19126;47.472;7.850;2022-07-05T05:52:39;10.45;;;3.08;;
32760;SDS011;19126;47.472;7.850;2022-07-05T05:55:06;6.13;;;2.75;;
32760;SDS011;19126;47.472;7.850;2022-07-05T05:57:35;10.60;;;2.95;;
32760;SDS011;19126;47.472;7.850;2022-07-05T06:00:03;13.60;;;2.72;;
32760;SDS011;19126;47.472;7.850;2022-07-05T06:02:33;7.70;;;3.13;;
32760;SDS011;19126;47.472;7.850;2022-07-05T06:05:00;6.63;;;2.72;;
32760;SDS011;19126;47.472;7.850;2022-07-05T06:07:27;6.47;;;2.40;;
32760;SDS011;19126;47.472;7.850;2022-07-05T06:09:54;8.07;;;3.60;;
32760;SDS011;19126;47.472;7.850;2022-07-05T06:12:22;12.05;;;3.22;;
32760;SDS011;19126;47.472;7.850;2022-07-05T06:14:50;7.90;;;2.38;;
32760;SDS011;19126;47.472;7.850;2022-07-05T06:17:17;10.30;;;2.53;;
32760;SDS011;19126;47.472;7.850;2022-07-05T06:19:44;11.48;;;2.55;;
32760;SDS011;19126;47.472;7.850;2022-07-05T06:22:11;4.80;;;2.10;;
32760;SDS011;19126;47.472;7.850;2022-07-05T06:24:39;9.98;;;2.40;;
32760;SDS011;19126;47.472;7.850;2022-07-05T06:27:06;7.75;;;2.47;;
32760;SDS011;19126;47.472;7.850;2022-07-05T06:29:33;8.25;;;2.45;;
32760;SDS011;19126;47.472;7.850;2022-07-05T06:32:02;5.00;;;2.10;;
32760;SDS011;19126;47.472;7.850;2022-07-05T06:34:30;10.63;;;1.98;;
32760;SDS011;19126;47.472;7.850;2022-07-05T06:36:57;16.75;;;2.92;;
32760;SDS011;19126;47.472;7.850;2022-07-05T06:39:24;10.95;;;2.25;;
32760;SDS011;19126;47.472;7.850;2022-07-05T06:41:51;4.70;;;1.88;;
32760;SDS011;19126;47.472;7.850;2022-07-05T06:44:18;9.55;;;1.80;;
32760;SDS011;19126;47.472;7.850;2022-07-05T06:46:46;5.47;;;1.75;;
32760;SDS011;19126;47.472;7.850;2022-07-05T06:49:14;16.98;;;1.75;;
32760;SDS011;19126;47.472;7.850;2022-07-05T06:51:41;7.25;;;1.63;;
32760;SDS011;19126;47.472;7.850;2022-07-05T06:54:09;9.20;;;1.60;;
32760;SDS011;19126;47.472;7.850;2022-07-05T06:56:36;10.32;;;1.35;;
32760;SDS011;19126;47.472;7.850;2022-07-05T06:59:03;7.25;;;1.50;;
32760;SDS011;19126;47.472;7.850;2022-07-05T07:01:31;7.40;;;1.45;;
32760;SDS011;19126;47.472;7.850;2022-07-05T07:03:58;3.72;;;1.70;;
32760;SDS011;19126;47.472;7.850;2022-07-05T07:06:26;4.80;;;1.48;;
32760;SDS011;19126;47.472;7.850;2022-07-05T07:08:53;3.20;;;1.38;;
32760;SDS011;19126;47.472;7.850;2022-07-05T07:11:38;7.15;;;1.70;;
32760;SDS011;19126;47.472;7.850;2022-07-05T07:14:05;2.67;;;1.38;;
32760;SDS011;19126;47.472;7.850;2022-07-05T07:16:32;4.68;;;1.70;;
32760;SDS011;19126;47.472;7.850;2022-07-05T07:18:59;2.95;;;1.70;;
32760;SDS011;19126;47.472;7.850;2022-07-05T07:21:28;4.50;;;1.55;;
32760;SDS011;19126;47.472;7.850;2022-07-05T07:23:55;5.35;;;1.80;;
32760;SDS011;19126;47.472;7.850;2022-07-05T07:26:23;6.57;;;1.77;;
32760;SDS011;19126;47.472;7.850;2022-07-05T07:28:50;8.07;;;2.03;;
32760;SDS011;19126;47.472;7.850;2022-07-05T07:31:17;4.13;;;1.50;;
32760;SDS011;19126;47.472;7.850;2022-07-05T07:33:44;13.38;;;2.38;;
32760;SDS011;19126;47.472;7.850;2022-07-05T07:36:11;9.57;;;1.42;;
32760;SDS011;19126;47.472;7.850;2022-07-05T07:38:40;2.97;;;1.60;;
32760;SDS011;19126;47.472;7.850;2022-07-05T07:41:07;7.78;;;1.75;;
32760;SDS011;19126;47.472;7.850;2022-07-05T07:43:34;5.30;;;1.50;;
32760;SDS011;19126;47.472;7.850;2022-07-05T07:46:01;7.70;;;1.63;;
32760;SDS011;19126;47.472;7.850;2022-07-05T07:48:29;5.15;;;1.35;;
32760;SDS011;19126;47.472;7.850;2022-07-05T07:50:57;5.32;;;1.38;;
32760;SDS011;19126;47.472;7.850;2022-07-05T07:53:24;4.53;;;1.42;;
32760;SDS011;19126;47.472;7.850;2022-07-05T07:55:52;10.63;;;1.67;;
32760;SDS011;19126;47.472;7.850;2022-07-05T07:58:20;10.32;;;1.55;;
32760;SDS011;19126;47.472;7.850;2022-07-05T08:00:47;8.18;;;2.45;;
32760;SDS011;19126;47.472;7.850;2022-07-05T08:03:14;6.10;;;1.73;;
32760;SDS011;19126;47.472;7.850;2022-07-05T08:05:41;11.40;;;1.45;;
32760;SDS011;19126;47.472;7.850;2022-07-05T08:08:08;8.90;;;1.50;;
32760;SDS011;19126;47.472;7.850;2022-07-05T08:10:35;4.57;;;1.38;;
32760;SDS011;19126;47.472;7.850;2022-07-05T08:13:04;6.63;;;1.55;;
32760;SDS011;19126;47.472;7.850;2022-07-05T08:15:31;6.57;;;1.65;;
32760;SDS011;19126;47.472;7.850;2022-07-05T08:17:58;8.40;;;1.70;;
32760;SDS011;19126;47.472;7.850;2022-07-05T08:20:43;5.60;;;1.77;;
32760;SDS011;19126;47.472;7.850;2022-07-05T08:23:27;7.30;;;2.03;;
32760;SDS011;19126;47.472;7.850;2022-07-05T08:25:54;8.57;;;2.30;;
32760;SDS011;19126;47.472;7.850;2022-07-05T08:28:23;15.80;;;2.20;;
32760;SDS011;19126;47.472;7.850;2022-07-05T08:30:51;25.40;;;2.25;;
32760;SDS011;19126;47.472;7.850;2022-07-05T08:33:18;5.65;;;1.65;;
32760;SDS011;19126;47.472;7.850;2022-07-05T08:35:45;3.55;;;1.40;;
32760;SDS011;19126;47.472;7.850;2022-07-05T08:38:12;12.82;;;1.80;;
32760;SDS011;19126;47.472;7.850;2022-07-05T08:40:39;10.68;;;1.75;;
32760;SDS011;19126;47.472;7.850;2022-07-05T08:43:15;3.70;;;1.52;;
32760;SDS011;19126;47.472;7.850;2022-07-05T08:45:45;4.22;;;1.65;;
32760;SDS011;19126;47.472;7.850;2022-07-05T08:48:14;9.23;;;1.80;;
32760;SDS011;19126;47.472;7.850;2022-07-05T08:50:43;4.68;;;1.67;;
32760;SDS011;19126;47.472;7.850;2022-07-05T08:53:13;8.73;;;1.88;;
32760;SDS011;19126;47.472;7.850;2022-07-05T08:55:41;9.80;;;2.08;;
32760;SDS011;19126;47.472;7.850;2022-07-05T08:58:09;5.00;;;1.70;;
32760;SDS011;19126;47.472;7.850;2022-07-05T09:00:37;5.55;;;1.67;;
32760;SDS011;19126;47.472;7.850;2022-07-05T09:03:07;9.07;;;1.65;;
32760;SDS011;19126;47.472;7.850;2022-07-05T09:05:35;6.28;;;1.40;;
32760;SDS011;19126;47.472;7.850;2022-07-05T09:08:10;7.65;;;1.88;;
32760;SDS011;19126;47.472;7.850;2022-07-05T09:10:42;5.85;;;2.00;;
32760;SDS011;19126;47.472;7.850;2022-07-05T09:13:10;5.05;;;1.70;;
32760;SDS011;19126;47.472;7.850;2022-07-05T09:15:37;7.53;;;1.55;;
32760;SDS011;19126;47.472;7.850;2022-07-05T09:18:05;4.43;;;1.90;;
32760;SDS011;19126;47.472;7.850;2022-07-05T09:20:35;4.88;;;1.40;;
32760;SDS011;19126;47.472;7.850;2022-07-05T09:23:02;9.45;;;1.58;;
32760;SDS011;19126;47.472;7.850;2022-07-05T09:25:30;5.47;;;1.98;;
32760;SDS011;19126;47.472;7.850;2022-07-05T09:27:58;7.95;;;2.38;;
32760;SDS011;19126;47.472;7.850;2022-07-05T09:30:31;10.27;;;1.70;;
32760;SDS011;19126;47.472;7.850;2022-07-05T09:33:04;6.85;;;2.13;;
32760;SDS011;19126;47.472;7.850;2022-07-05T09:35:35;5.30;;;1.70;;
32760;SDS011;19126;47.472;7.850;2022-07-05T09:38:05;10.18;;;1.60;;
32760;SDS011;19126;47.472;7.850;2022-07-05T09:40:45;4.68;;;1.60;;
32760;SDS011;19126;47.472;7.850;2022-07-05T09:43:14;4.80;;;1.20;;
32760;SDS011;19126;47.472;7.850;2022-07-05T09:45:50;12.32;;;1.90;;
32760;SDS011;19126;47.472;7.850;2022-07-05T09:48:21;6.88;;;1.77;;
32760;SDS011;19126;47.472;7.850;2022-07-05T09:50:49;6.88;;;1.23;;
32760;SDS011;19126;47.472;7.850;2022-07-05T09:53:17;4.68;;;1.50;;
32760;SDS011;19126;47.472;7.850;2022-07-05T09:55:59;2.42;;;1.23;;
32760;SDS011;19126;47.472;7.850;2022-07-05T09:58:27;9.70;;;1.38;;
32760;SDS011;19126;47.472;7.850;2022-07-05T10:00:55;14.52;;;2.00;;
32760;SDS011;19126;47.472;7.850;2022-07-05T10:03:24;6.70;;;1.50;;
32760;SDS011;19126;47.472;7.850;2022-07-05T10:05:51;8.85;;;1.20;;
32760;SDS011;19126;47.472;7.850;2022-07-05T10:08:18;7.70;;;1.40;;
32760;SDS011;19126;47.472;7.850;2022-07-05T10:10:47;9.05;;;1.40;;
32760;SDS011;19126;47.472;7.850;2022-07-05T10:13:18;6.43;;;1.40;;
32760;SDS011;19126;47.472;7.850;2022-07-05T10:15:45;7.63;;;1.50;;
32760;SDS011;19126;47.472;7.850;2022-07-05T10:18:20;6.15;;;1.30;;
32760;SDS011;19126;47.472;7.850;2022-07-05T10:20:56;3.80;;;1.35;;
32760;SDS011;19126;47.472;7.850;2022-07-05T10:23:28;5.43;;;1.95;;
32760;SDS011;19126;47.472;7.850;2022-07-05T10:25:56;3.72;;;1.30;;
32760;SDS011;19126;47.472;7.850;2022-07-05T10:28:26;4.10;;;1.27;;
32760;SDS011;19126;47.472;7.850;2022-07-05T10:30:54;7.53;;;1.60;;
32760;SDS011;19126;47.472;7.850;2022-07-05T10:33:23;8.40;;;1.02;;
32760;SDS011;19126;47.472;7.850;2022-07-05T10:35:52;8.45;;;1.30;;
32760;SDS011;19126;47.472;7.850;2022-07-05T10:38:19;6.20;;;1.10;;
32760;SDS011;19126;47.472;7.850;2022-07-05T10:40:48;2.22;;;1.10;;
32760;SDS011;19126;47.472;7.850;2022-07-05T10:43:21;12.20;;;1.48;;
32760;SDS011;19126;47.472;7.850;2022-07-05T10:45:49;4.15;;;1.00;;
32760;SDS011;19126;47.472;7.850;2022-07-05T10:48:18;6.88;;;1.13;;
32760;SDS011;19126;47.472;7.850;2022-07-05T10:50:51;5.63;;;1.73;;
32760;SDS011;19126;47.472;7.850;2022-07-05T10:53:20;6.75;;;1.23;;
32760;SDS011;19126;47.472;7.850;2022-07-05T10:55:49;4.88;;;1.10;;
32760;SDS011;19126;47.472;7.850;2022-07-05T10:58:28;8.55;;;1.33;;
32760;SDS011;19126;47.472;7.850;2022-07-05T11:04:19;13.73;;;1.30;;
32760;SDS011;19126;47.472;7.850;2022-07-05T11:07:00;4.53;;;0.98;;
32760;SDS011;19126;47.472;7.850;2022-07-05T11:09:28;4.20;;;1.27;;
32760;SDS011;19126;47.472;7.850;2022-07-05T11:12:08;2.60;;;0.98;;
32760;SDS011;19126;47.472;7.850;2022-07-05T11:14:39;4.93;;;1.20;;
32760;SDS011;19126;47.472;7.850;2022-07-05T11:17:17;7.15;;;1.20;;
32760;SDS011;19126;47.472;7.850;2022-07-05T11:25:41;2.80;;;1.20;;
32760;SDS011;19126;47.472;7.850;2022-07-05T11:28:20;2.92;;;1.25;;
32760;SDS011;19126;47.472;7.850;2022-07-05T11:30:52;5.00;;;1.30;;
32760;SDS011;19126;47.472;7.850;2022-07-05T11:33:32;5.47;;;1.05;;
32760;SDS011;19126;47.472;7.850;2022-07-05T11:39:07;2.95;;;1.42;;
32760;SDS011;19126;47.472;7.850;2022-07-05T11:41:44;9.43;;;1.35;;
32760;SDS011;19126;47.472;7.850;2022-07-05T11:44:13;8.75;;;1.42;;
32760;SDS011;19126;47.472;7.850;2022-07-05T11:46:41;2.80;;;1.08;;
32760;SDS011;19126;47.472;7.850;2022-07-05T11:49:08;4.88;;;1.20;;
32760;SDS011;19126;47.472;7.850;2022-07-05T11:51:36;3.22;;;1.02;;
32760;SDS011;19126;47.472;7.850;2022-07-05T11:54:03;11.90;;;1.48;;
32760;SDS011;19126;47.472;7.850;2022-07-05T11:56:35;4.00;;;1.10;;
32760;SDS011;19126;47.472;7.850;2022-07-05T11:59:17;7.10;;;1.45;;
32760;SDS011;19126;47.472;7.850;2022-07-05T12:01:45;7.78;;;1.38;;
32760;SDS011;19126;47.472;7.850;2022-07-05T12:04:20;1.92;;;1.10;;
32760;SDS011;19126;47.472;7.850;2022-07-05T12:06:48;2.92;;;1.30;;
32760;SDS011;19126;47.472;7.850;2022-07-05T12:09:21;6.38;;;1.52;;
32760;SDS011;19126;47.472;7.850;2022-07-05T12:11:50;5.57;;;1.25;;
32760;SDS011;19126;47.472;7.850;2022-07-05T12:14:36;4.68;;;1.33;;
32760;SDS011;19126;47.472;7.850;2022-07-05T12:17:12;2.28;;;1.20;;
32760;SDS011;19126;47.472;7.850;2022-07-05T12:19:41;5.38;;;1.25;;
32760;SDS011;19126;47.472;7.850;2022-07-05T12:22:08;6.60;;;1.38;;
32760;SDS011;19126;47.472;7.850;2022-07-05T12:24:35;3.80;;;1.08;;
32760;SDS011;19126;47.472;7.850;2022-07-05T12:27:03;10.35;;;1.33;;
32760;SDS011;19126;47.472;7.850;2022-07-05T12:29:31;7.13;;;1.58;;
32760;SDS011;19126;47.472;7.850;2022-07-05T12:32:02;5.68;;;1.13;;
32760;SDS011;19126;47.472;7.850;2022-07-05T12:34:33;3.05;;;0.85;;
32760;SDS011;19126;47.472;7.850;2022-07-05T12:37:01;6.40;;;1.23;;
32760;SDS011;19126;47.472;7.850;2022-07-05T12:39:30;2.25;;;1.20;;
32760;SDS011;19126;47.472;7.850;2022-07-05T12:41:57;2.75;;;1.10;;
32760;SDS011;19126;47.472;7.850;2022-07-05T12:44:24;4.80;;;1.20;;
32760;SDS011;19126;47.472;7.850;2022-07-05T12:46:51;3.75;;;1.35;;
32760;SDS011;19126;47.472;7.850;2022-07-05T12:49:30;7.65;;;1.73;;
32760;SDS011;19126;47.472;7.850;2022-07-05T12:52:02;3.70;;;1.35;;
32760;SDS011;19126;47.472;7.850;2022-07-05T12:54:30;12.93;;;1.67;;
32760;SDS011;19126;47.472;7.850;2022-07-05T12:57:15;4.63;;;1.67;;
32760;SDS011;19126;47.472;7.850;2022-07-05T13:00:00;4.93;;;1.35;;
32760;SDS011;19126;47.472;7.850;2022-07-05T13:02:33;15.23;;;1.42;;
32760;SDS011;19126;47.472;7.850;2022-07-05T13:05:05;3.45;;;1.00;;
32760;SDS011;19126;47.472;7.850;2022-07-05T13:07:40;8.88;;;1.35;;
32760;SDS011;19126;47.472;7.850;2022-07-05T13:10:15;9.32;;;1.50;;
32760;SDS011;19126;47.472;7.850;2022-07-05T13:12:43;4.72;;;1.00;;
32760;SDS011;19126;47.472;7.850;2022-07-05T13:15:11;4.40;;;1.17;;
32760;SDS011;19126;47.472;7.850;2022-07-05T13:17:38;6.75;;;1.23;;
32760;SDS011;19126;47.472;7.850;2022-07-05T13:20:09;7.05;;;1.27;;
32760;SDS011;19126;47.472;7.850;2022-07-05T13:22:39;9.63;;;1.30;;
32760;SDS011;19126;47.472;7.850;2022-07-05T13:25:06;3.92;;;1.00;;
32760;SDS011;19126;47.472;7.850;2022-07-05T13:27:36;6.22;;;1.08;;
32760;SDS011;19126;47.472;7.850;2022-07-05T13:30:04;8.25;;;1.10;;
32760;SDS011;19126;47.472;7.850;2022-07-05T13:32:32;4.40;;;1.10;;
32760;SDS011;19126;47.472;7.850;2022-07-05T13:34:59;3.15;;;1.02;;
32760;SDS011;19126;47.472;7.850;2022-07-05T13:37:28;7.63;;;0.98;;
32760;SDS011;19126;47.472;7.850;2022-07-05T13:39:55;1.90;;;0.80;;
32760;SDS011;19126;47.472;7.850;2022-07-05T13:42:22;4.70;;;1.10;;
32760;SDS011;19126;47.472;7.850;2022-07-05T13:44:49;9.82;;;0.90;;
32760;SDS011;19126;47.472;7.850;2022-07-05T13:47:17;2.25;;;1.02;;
32760;SDS011;19126;47.472;7.850;2022-07-05T13:49:44;3.55;;;1.17;;
32760;SDS011;19126;47.472;7.850;2022-07-05T13:52:11;11.95;;;1.60;;
32760;SDS011;19126;47.472;7.850;2022-07-05T13:54:40;6.40;;;1.00;;
32760;SDS011;19126;47.472;7.850;2022-07-05T13:57:08;2.70;;;1.02;;
32760;SDS011;19126;47.472;7.850;2022-07-05T13:59:35;2.20;;;0.82;;
32760;SDS011;19126;47.472;7.850;2022-07-05T14:02:02;4.13;;;1.10;;
32760;SDS011;19126;47.472;7.850;2022-07-05T14:04:30;1.80;;;0.95;;
32760;SDS011;19126;47.472;7.850;2022-07-05T14:06:58;1.60;;;0.77;;
32760;SDS011;19126;47.472;7.850;2022-07-05T14:09:26;7.97;;;0.93;;
32760;SDS011;19126;47.472;7.850;2022-07-05T14:11:54;3.83;;;1.30;;
32760;SDS011;19126;47.472;7.850;2022-07-05T14:14:21;1.77;;;0.93;;
32760;SDS011;19126;47.472;7.850;2022-07-05T14:16:48;12.25;;;1.33;;
32760;SDS011;19126;47.472;7.850;2022-07-05T14:19:16;10.95;;;1.38;;
32760;SDS011;19126;47.472;7.850;2022-07-05T14:21:43;5.40;;;1.00;;
32760;SDS011;19126;47.472;7.850;2022-07-05T14:24:12;3.08;;;0.77;;
32760;SDS011;19126;47.472;7.850;2022-07-05T14:26:39;3.33;;;1.05;;
32760;SDS011;19126;47.472;7.850;2022-07-05T14:29:08;4.03;;;1.08;;
32760;SDS011;19126;47.472;7.850;2022-07-05T14:31:35;3.63;;;0.98;;
32760;SDS011;19126;47.472;7.850;2022-07-05T14:34:02;4.63;;;1.00;;
32760;SDS011;19126;47.472;7.850;2022-07-05T14:36:30;5.97;;;1.10;;
32760;SDS011;19126;47.472;7.850;2022-07-05T14:38:57;8.43;;;1.27;;
32760;SDS011;19126;47.472;7.850;2022-07-05T14:41:27;4.43;;;1.40;;
32760;SDS011;19126;47.472;7.850;2022-07-05T14:43:54;5.68;;;1.00;;
32760;SDS011;19126;47.472;7.850;2022-07-05T14:46:23;4.35;;;0.90;;
32760;SDS011;19126;47.472;7.850;2022-07-05T14:48:50;1.75;;;0.70;;
32760;SDS011;19126;47.472;7.850;2022-07-05T14:51:18;5.20;;;1.05;;
32760;SDS011;19126;47.472;7.850;2022-07-05T14:53:45;3.35;;;0.85;;
32760;SDS011;19126;47.472;7.850;2022-07-05T14:56:12;3.47;;;0.82;;
32760;SDS011;19126;47.472;7.850;2022-07-05T14:58:39;4.93;;;1.02;;
32760;SDS011;19126;47.472;7.850;2022-07-05T15:01:06;2.95;;;0.90;;
32760;SDS011;19126;47.472;7.850;2022-07-05T15:03:35;7.85;;;0.88;;
32760;SDS011;19126;47.472;7.850;2022-07-05T15:06:04;8.55;;;1.25;;
32760;SDS011;19126;47.472;7.850;2022-07-05T15:08:31;5.25;;;0.98;;